sensor_id;sensor_type;location;lat;lon;timestamp;pressure;altitude;pressure_sealevel;temperature;humidity
51239;BME280;38154;47.548;18.828;2022-12-18T00:02:02;100066.09;;;-4.19;100.00
51239;BME280;38154;47.548;18.828;2022-12-18T00:04:29;100064.56;;;-4.17;100.00
51239;BME280;38154;47.548;18.828;2022-12-18T00:06:55;100073.56;;;-4.11;100.00
51239;BME280;38154;47.548;18.828;2022-12-18T00:09:21;100078.66;;;-4.11;100.00
51239;BME280;38154;47.548;18.828;2022-12-18T00:11:47;100088.84;;;-4.11;100.00
51239;BME280;38154;47.548;18.828;2022-12-18T00:14:13;100093.94;;;-4.11;100.00
51239;BME280;38154;47.548;18.828;2022-12-18T00:16:39;100106.84;;;-4.19;100.00
51239;BME280;38154;47.548;18.828;2022-12-18T00:19:06;100105.06;;;-4.20;100.00
51239;BME280;38154;47.548;18.828;2022-12-18T00:21:33;100120.69;;;-4.16;100.00
51239;BME280;38154;47.548;18.828;2022-12-18T00:23:59;100127.06;;;-4.11;100.00
51239;BME280;38154;47.548;18.828;2022-12-18T00:26:30;100136.91;;;-4.15;100.00
51239;BME280;38154;47.548;18.828;2022-12-18T00:29:10;100137.12;;;-4.22;100.00
51239;BME280;38154;47.548;18.828;2022-12-18T00:31:37;100138.44;;;-4.17;100.00
51239;BME280;38154;47.548;18.828;2022-12-18T00:34:03;100142.47;;;-4.19;100.00
51239;BME280;38154;47.548;18.828;2022-12-18T00:36:32;100152.53;;;-4.21;100.00
51239;BME280;38154;47.548;18.828;2022-12-18T00:39:00;100139.31;;;-4.17;100.00
51239;BME280;38154;47.548;18.828;2022-12-18T00:41:26;100141.09;;;-4.26;100.00
51239;BME280;38154;47.548;18.828;2022-12-18T00:44:14;100153.06;;;-4.25;100.00
51239;BME280;38154;47.548;18.828;2022-12-18T00:46:41;100148.59;;;-4.28;100.00
51239;BME280;38154;47.548;18.828;2022-12-18T00:49:07;100144.91;;;-4.21;100.00
51239;BME280;38154;47.548;18.828;2022-12-18T00:51:33;100148.38;;;-4.20;100.00
51239;BME280;38154;47.548;18.828;2022-12-18T00:53:59;100157.50;;;-4.22;100.00
51239;BME280;38154;47.548;18.828;2022-12-18T00:56:25;100155.87;;;-4.32;100.00
51239;BME280;38154;47.548;18.828;2022-12-18T00:58:51;100153.56;;;-4.29;100.00
51239;BME280;38154;47.548;18.828;2022-12-18T01:01:17;100167.09;;;-4.30;100.00
51239;BME280;38154;47.548;18.828;2022-12-18T01:03:43;100172.81;;;-4.43;100.00
51239;BME280;38154;47.548;18.828;2022-12-18T01:06:12;100170.91;;;-4.45;100.00
51239;BME280;38154;47.548;18.828;2022-12-18T01:08:38;100174.22;;;-4.36;100.00
51239;BME280;38154;47.548;18.828;2022-12-18T01:11:12;100182.63;;;-4.37;100.00
51239;BME280;38154;47.548;18.828;2022-12-18T01:13:39;100184.00;;;-4.51;100.00
51239;BME280;38154;47.548;18.828;2022-12-18T01:16:05;100195.84;;;-4.62;100.00
51239;BME280;38154;47.548;18.828;2022-12-18T01:18:31;100189.22;;;-4.50;100.00
51239;BME280;38154;47.548;18.828;2022-12-18T01:20:57;100201.69;;;-4.63;100.00
51239;BME280;38154;47.548;18.828;2022-12-18T01:23:23;100199.66;;;-4.57;100.00
51239;BME280;38154;47.548;18.828;2022-12-18T01:25:49;100202.47;;;-4.64;100.00
51239;BME280;38154;47.548;18.828;2022-12-18T01:28:15;100206.91;;;-4.72;100.00
51239;BME280;38154;47.548;18.828;2022-12-18T01:30:40;100200.94;;;-4.72;100.00
51239;BME280;38154;47.548;18.828;2022-12-18T01:33:06;100204.88;;;-4.76;100.00
51239;BME280;38154;47.548;18.828;2022-12-18T01:35:32;100214.66;;;-4.70;100.00
51239;BME280;38154;47.548;18.828;2022-12-18T01:37:58;100217.81;;;-4.73;100.00
51239;BME280;38154;47.548;18.828;2022-12-18T01:40:24;100216.41;;;-4.79;100.00
51239;BME280;38154;47.548;18.828;2022-12-18T01:42:53;100206.75;;;-4.73;100.00
51239;BME280;38154;47.548;18.828;2022-12-18T01:45:25;100217.94;;;-4.81;100.00
51239;BME280;38154;47.548;18.828;2022-12-18T01:48:21;100224.56;;;-4.73;100.00
51239;BME280;38154;47.548;18.828;2022-12-18T01:50:47;100225.84;;;-4.78;100.00
51239;BME280;38154;47.548;18.828;2022-12-18T01:53:15;100229.78;;;-4.82;100.00
51239;BME280;38154;47.548;18.828;2022-12-18T01:55:48;100227.63;;;-4.77;100.00
51239;BME280;38154;47.548;18.828;2022-12-18T01:58:16;100221.84;;;-4.95;100.00
51239;BME280;38154;47.548;18.828;2022-12-18T02:00:42;100230.44;;;-5.14;100.00
51239;BME280;38154;47.548;18.828;2022-12-18T02:03:08;100214.38;;;-5.23;100.00
51239;BME280;38154;47.548;18.828;2022-12-18T02:05:52;100225.31;;;-5.24;100.00
51239;BME280;38154;47.548;18.828;2022-12-18T02:08:27;100229.59;;;-5.04;100.00
51239;BME280;38154;47.548;18.828;2022-12-18T02:18:43;100234.28;;;-5.09;100.00
51239;BME280;38154;47.548;18.828;2022-12-18T02:23:55;100238.84;;;-5.05;100.00
51239;BME280;38154;47.548;18.828;2022-12-18T02:29:08;100251.06;;;-5.11;100.00
51239;BME280;38154;47.548;18.828;2022-12-18T02:31:41;100248.16;;;-5.05;100.00
51239;BME280;38154;47.548;18.828;2022-12-18T02:34:09;100260.91;;;-4.95;100.00
51239;BME280;38154;47.548;18.828;2022-12-18T02:36:40;100256.59;;;-4.96;100.00
51239;BME280;38154;47.548;18.828;2022-12-18T02:39:09;100259.66;;;-4.79;100.00
51239;BME280;38154;47.548;18.828;2022-12-18T02:41:35;100259.19;;;-4.75;100.00
51239;BME280;38154;47.548;18.828;2022-12-18T02:44:08;100268.69;;;-4.83;100.00
51239;BME280;38154;47.548;18.828;2022-12-18T02:46:40;100264.00;;;-4.78;100.00
51239;BME280;38154;47.548;18.828;2022-12-18T02:49:17;100264.37;;;-4.84;100.00
51239;BME280;38154;47.548;18.828;2022-12-18T02:51:51;100266.94;;;-4.74;100.00
51239;BME280;38154;47.548;18.828;2022-12-18T02:54:24;100266.38;;;-4.90;100.00
51239;BME280;38154;47.548;18.828;2022-12-18T02:56:57;100260.72;;;-4.77;100.00
51239;BME280;38154;47.548;18.828;2022-12-18T02:59:37;100277.94;;;-4.94;100.00
51239;BME280;38154;47.548;18.828;2022-12-18T03:05:15;100285.66;;;-5.32;100.00
51239;BME280;38154;47.548;18.828;2022-12-18T03:08:03;100282.38;;;-5.31;100.00
51239;BME280;38154;47.548;18.828;2022-12-18T03:10:35;100278.34;;;-5.18;100.00
51239;BME280;38154;47.548;18.828;2022-12-18T03:13:09;100274.59;;;-5.03;100.00
51239;BME280;38154;47.548;18.828;2022-12-18T03:15:47;100283.38;;;-4.99;100.00
51239;BME280;38154;47.548;18.828;2022-12-18T03:18:18;100279.31;;;-5.08;100.00
51239;BME280;38154;47.548;18.828;2022-12-18T03:20:47;100276.50;;;-5.11;100.00
51239;BME280;38154;47.548;18.828;2022-12-18T03:23:21;100281.72;;;-5.09;100.00
51239;BME280;38154;47.548;18.828;2022-12-18T03:25:51;100285.38;;;-5.16;100.00
51239;BME280;38154;47.548;18.828;2022-12-18T03:28:21;100285.31;;;-5.26;100.00
51239;BME280;38154;47.548;18.828;2022-12-18T03:30:50;100291.25;;;-5.36;100.00
51239;BME280;38154;47.548;18.828;2022-12-18T03:33:29;100295.22;;;-5.48;100.00
51239;BME280;38154;47.548;18.828;2022-12-18T03:35:58;100307.59;;;-5.62;100.00
51239;BME280;38154;47.548;18.828;2022-12-18T03:38:24;100315.00;;;-5.73;100.00
51239;BME280;38154;47.548;18.828;2022-12-18T03:41:15;100317.81;;;-5.89;100.00
51239;BME280;38154;47.548;18.828;2022-12-18T03:43:52;100323.59;;;-6.01;100.00
51239;BME280;38154;47.548;18.828;2022-12-18T03:46:33;100330.38;;;-6.10;100.00
51239;BME280;38154;47.548;18.828;2022-12-18T03:49:11;100333.84;;;-6.18;100.00
51239;BME280;38154;47.548;18.828;2022-12-18T03:51:43;100329.13;;;-6.32;100.00
51239;BME280;38154;47.548;18.828;2022-12-18T03:54:14;100332.59;;;-6.41;100.00
51239;BME280;38154;47.548;18.828;2022-12-18T03:56:44;100335.19;;;-6.22;100.00
51239;BME280;38154;47.548;18.828;2022-12-18T03:59:13;100334.38;;;-6.12;100.00
51239;BME280;38154;47.548;18.828;2022-12-18T04:01:45;100345.31;;;-6.13;100.00
51239;BME280;38154;47.548;18.828;2022-12-18T04:04:12;100346.84;;;-6.24;100.00
51239;BME280;38154;47.548;18.828;2022-12-18T04:06:40;100347.22;;;-6.38;100.00
51239;BME280;38154;47.548;18.828;2022-12-18T04:09:07;100350.25;;;-6.51;100.00
51239;BME280;38154;47.548;18.828;2022-12-18T04:11:33;100350.72;;;-6.64;100.00
51239;BME280;38154;47.548;18.828;2022-12-18T04:13:59;100345.84;;;-6.71;100.00
51239;BME280;38154;47.548;18.828;2022-12-18T04:16:26;100351.78;;;-6.71;100.00
51239;BME280;38154;47.548;18.828;2022-12-18T04:18:52;100357.66;;;-6.80;100.00
51239;BME280;38154;47.548;18.828;2022-12-18T04:21:19;100350.81;;;-6.90;100.00
51239;BME280;38154;47.548;18.828;2022-12-18T04:23:45;100352.91;;;-6.95;100.00
51239;BME280;38154;47.548;18.828;2022-12-18T04:26:11;100360.53;;;-7.03;100.00
51239;BME280;38154;47.548;18.828;2022-12-18T04:28:37;100359.47;;;-7.05;100.00
51239;BME280;38154;47.548;18.828;2022-12-18T04:31:03;100367.22;;;-7.13;100.00
51239;BME280;38154;47.548;18.828;2022-12-18T04:33:28;100363.97;;;-7.20;100.00
51239;BME280;38154;47.548;18.828;2022-12-18T04:35:55;100374.25;;;-7.28;100.00
51239;BME280;38154;47.548;18.828;2022-12-18T04:38:21;100369.34;;;-7.35;100.00
51239;BME280;38154;47.548;18.828;2022-12-18T04:40:47;100373.38;;;-7.37;100.00
51239;BME280;38154;47.548;18.828;2022-12-18T04:43:13;100379.78;;;-7.40;100.00
51239;BME280;38154;47.548;18.828;2022-12-18T04:45:39;100382.00;;;-7.43;100.00
51239;BME280;38154;47.548;18.828;2022-12-18T04:48:05;100387.34;;;-7.49;100.00
51239;BME280;38154;47.548;18.828;2022-12-18T04:50:31;100390.50;;;-7.52;100.00
51239;BME280;38154;47.548;18.828;2022-12-18T04:52:57;100387.50;;;-7.56;100.00
51239;BME280;38154;47.548;18.828;2022-12-18T04:55:23;100392.56;;;-7.56;100.00
51239;BME280;38154;47.548;18.828;2022-12-18T04:57:49;100394.62;;;-7.61;100.00
51239;BME280;38154;47.548;18.828;2022-12-18T05:00:15;100394.34;;;-7.64;100.00
51239;BME280;38154;47.548;18.828;2022-12-18T05:02:41;100405.69;;;-7.60;100.00
51239;BME280;38154;47.548;18.828;2022-12-18T05:05:07;100409.56;;;-7.64;100.00
51239;BME280;38154;47.548;18.828;2022-12-18T05:07:33;100417.88;;;-7.65;100.00
51239;BME280;38154;47.548;18.828;2022-12-18T05:09:59;100412.66;;;-7.67;100.00
51239;BME280;38154;47.548;18.828;2022-12-18T05:12:25;100406.00;;;-7.57;100.00
51239;BME280;38154;47.548;18.828;2022-12-18T05:14:51;100409.41;;;-7.57;100.00
51239;BME280;38154;47.548;18.828;2022-12-18T05:17:17;100407.59;;;-7.58;100.00
51239;BME280;38154;47.548;18.828;2022-12-18T05:19:43;100411.19;;;-7.56;100.00
51239;BME280;38154;47.548;18.828;2022-12-18T05:22:10;100415.50;;;-7.55;100.00
51239;BME280;38154;47.548;18.828;2022-12-18T05:24:36;100421.59;;;-7.61;100.00
51239;BME280;38154;47.548;18.828;2022-12-18T05:27:02;100421.75;;;-7.69;100.00
51239;BME280;38154;47.548;18.828;2022-12-18T05:29:27;100417.09;;;-7.73;100.00
51239;BME280;38154;47.548;18.828;2022-12-18T05:31:53;100420.81;;;-7.78;100.00
51239;BME280;38154;47.548;18.828;2022-12-18T05:34:19;100415.91;;;-7.76;100.00
51239;BME280;38154;47.548;18.828;2022-12-18T05:36:45;100417.97;;;-7.81;100.00
51239;BME280;38154;47.548;18.828;2022-12-18T05:39:11;100427.22;;;-7.73;100.00
51239;BME280;38154;47.548;18.828;2022-12-18T05:41:37;100434.25;;;-7.70;100.00
51239;BME280;38154;47.548;18.828;2022-12-18T05:44:03;100438.44;;;-7.71;100.00
51239;BME280;38154;47.548;18.828;2022-12-18T05:46:29;100445.12;;;-7.71;100.00
51239;BME280;38154;47.548;18.828;2022-12-18T05:48:55;100449.28;;;-7.72;100.00
51239;BME280;38154;47.548;18.828;2022-12-18T05:51:21;100442.72;;;-7.78;100.00
51239;BME280;38154;47.548;18.828;2022-12-18T05:53:48;100442.88;;;-7.77;100.00
51239;BME280;38154;47.548;18.828;2022-12-18T05:56:17;100444.78;;;-7.83;100.00
51239;BME280;38154;47.548;18.828;2022-12-18T05:58:43;100445.06;;;-7.89;100.00
51239;BME280;38154;47.548;18.828;2022-12-18T06:01:23;100447.75;;;-7.87;100.00
51239;BME280;38154;47.548;18.828;2022-12-18T06:03:49;100457.56;;;-7.90;100.00
51239;BME280;38154;47.548;18.828;2022-12-18T06:06:20;100454.88;;;-7.92;100.00
51239;BME280;38154;47.548;18.828;2022-12-18T06:08:48;100455.03;;;-7.90;100.00
51239;BME280;38154;47.548;18.828;2022-12-18T06:11:17;100454.19;;;-7.82;100.00
51239;BME280;38154;47.548;18.828;2022-12-18T06:13:44;100454.03;;;-7.84;100.00
51239;BME280;38154;47.548;18.828;2022-12-18T06:16:10;100455.69;;;-7.75;100.00
51239;BME280;38154;47.548;18.828;2022-12-18T06:18:36;100461.66;;;-7.75;100.00
51239;BME280;38154;47.548;18.828;2022-12-18T06:21:01;100466.56;;;-7.68;100.00
51239;BME280;38154;47.548;18.828;2022-12-18T06:23:28;100462.16;;;-7.53;100.00
51239;BME280;38154;47.548;18.828;2022-12-18T06:25:54;100468.41;;;-7.58;100.00
51239;BME280;38154;47.548;18.828;2022-12-18T06:28:20;100471.47;;;-7.69;100.00
51239;BME280;38154;47.548;18.828;2022-12-18T06:30:49;100477.56;;;-7.76;100.00
51239;BME280;38154;47.548;18.828;2022-12-18T06:33:16;100485.16;;;-7.76;100.00
51239;BME280;38154;47.548;18.828;2022-12-18T06:35:42;100488.31;;;-7.78;100.00
51239;BME280;38154;47.548;18.828;2022-12-18T06:38:08;100482.38;;;-7.70;100.00
51239;BME280;38154;47.548;18.828;2022-12-18T06:40:33;100493.56;;;-7.59;100.00
51239;BME280;38154;47.548;18.828;2022-12-18T06:42:59;100493.56;;;-7.59;100.00
51239;BME280;38154;47.548;18.828;2022-12-18T06:45:25;100504.16;;;-7.63;100.00
51239;BME280;38154;47.548;18.828;2022-12-18T06:47:51;100504.31;;;-7.62;100.00
51239;BME280;38154;47.548;18.828;2022-12-18T06:50:17;100507.44;;;-7.56;100.00
51239;BME280;38154;47.548;18.828;2022-12-18T06:52:43;100498.25;;;-7.38;100.00
51239;BME280;38154;47.548;18.828;2022-12-18T06:55:10;100513.47;;;-7.29;100.00
51239;BME280;38154;47.548;18.828;2022-12-18T06:57:37;100521.53;;;-7.24;100.00
51239;BME280;38154;47.548;18.828;2022-12-18T07:00:06;100520.03;;;-7.31;100.00
51239;BME280;38154;47.548;18.828;2022-12-18T07:02:32;100530.47;;;-7.28;100.00
51239;BME280;38154;47.548;18.828;2022-12-18T07:04:58;100524.22;;;-7.23;100.00
51239;BME280;38154;47.548;18.828;2022-12-18T07:07:25;100537.94;;;-7.21;100.00
51239;BME280;38154;47.548;18.828;2022-12-18T07:09:51;100540.47;;;-7.21;100.00
51239;BME280;38154;47.548;18.828;2022-12-18T07:12:17;100546.91;;;-7.16;100.00
51239;BME280;38154;47.548;18.828;2022-12-18T07:14:43;100546.47;;;-7.12;100.00
51239;BME280;38154;47.548;18.828;2022-12-18T07:17:09;100552.00;;;-7.07;100.00
51239;BME280;38154;47.548;18.828;2022-12-18T07:19:35;100554.09;;;-7.03;100.00
51239;BME280;38154;47.548;18.828;2022-12-18T07:22:01;100558.13;;;-6.87;100.00
51239;BME280;38154;47.548;18.828;2022-12-18T07:24:27;100569.97;;;-6.62;100.00
51239;BME280;38154;47.548;18.828;2022-12-18T07:26:53;100569.22;;;-6.35;100.00
51239;BME280;38154;47.548;18.828;2022-12-18T07:29:20;100575.16;;;-6.25;100.00
51239;BME280;38154;47.548;18.828;2022-12-18T07:31:45;100576.94;;;-6.07;100.00
51239;BME280;38154;47.548;18.828;2022-12-18T07:34:13;100582.72;;;-5.45;100.00
51239;BME280;38154;47.548;18.828;2022-12-18T07:36:39;100583.88;;;-4.77;100.00
51239;BME280;38154;47.548;18.828;2022-12-18T07:39:05;100603.09;;;-4.24;100.00
51239;BME280;38154;47.548;18.828;2022-12-18T07:41:31;100599.53;;;-3.97;100.00
51239;BME280;38154;47.548;18.828;2022-12-18T07:43:57;100606.94;;;-3.89;100.00
51239;BME280;38154;47.548;18.828;2022-12-18T07:46:23;100603.50;;;-3.61;100.00
51239;BME280;38154;47.548;18.828;2022-12-18T07:48:49;100614.13;;;-3.06;100.00
51239;BME280;38154;47.548;18.828;2022-12-18T07:51:14;100620.37;;;-2.31;100.00
51239;BME280;38154;47.548;18.828;2022-12-18T07:53:40;100621.75;;;-1.61;100.00
51239;BME280;38154;47.548;18.828;2022-12-18T07:56:10;100628.56;;;-0.61;99.06
51239;BME280;38154;47.548;18.828;2022-12-18T07:58:36;100635.72;;;0.85;91.68
51239;BME280;38154;47.548;18.828;2022-12-18T08:01:06;100641.91;;;2.02;80.00
51239;BME280;38154;47.548;18.828;2022-12-18T08:03:32;100643.00;;;2.33;76.60
51239;BME280;38154;47.548;18.828;2022-12-18T08:06:02;100653.91;;;2.55;75.15
51239;BME280;38154;47.548;18.828;2022-12-18T08:08:29;100646.56;;;3.03;71.92
51239;BME280;38154;47.548;18.828;2022-12-18T08:10:56;100641.25;;;3.43;69.55
51239;BME280;38154;47.548;18.828;2022-12-18T08:13:22;100636.59;;;3.23;69.01
51239;BME280;38154;47.548;18.828;2022-12-18T08:16:06;100638.19;;;3.94;67.13
51239;BME280;38154;47.548;18.828;2022-12-18T08:18:35;100647.63;;;3.78;65.14
51239;BME280;38154;47.548;18.828;2022-12-18T08:21:12;100643.38;;;2.66;68.90
51239;BME280;38154;47.548;18.828;2022-12-18T08:23:38;100642.69;;;2.68;71.49
51239;BME280;38154;47.548;18.828;2022-12-18T08:26:05;100652.50;;;4.03;66.20
51239;BME280;38154;47.548;18.828;2022-12-18T08:28:31;100659.16;;;4.76;61.23
51239;BME280;38154;47.548;18.828;2022-12-18T08:30:57;100661.22;;;5.14;58.62
51239;BME280;38154;47.548;18.828;2022-12-18T08:33:23;100660.16;;;5.76;57.44
51239;BME280;38154;47.548;18.828;2022-12-18T08:35:49;100661.75;;;6.25;54.99
51239;BME280;38154;47.548;18.828;2022-12-18T08:38:15;100657.66;;;6.66;52.78
51239;BME280;38154;47.548;18.828;2022-12-18T08:40:41;100666.00;;;6.97;52.08
51239;BME280;38154;47.548;18.828;2022-12-18T08:43:09;100660.03;;;6.80;52.59
51239;BME280;38154;47.548;18.828;2022-12-18T08:45:53;100661.63;;;6.96;52.74
51239;BME280;38154;47.548;18.828;2022-12-18T08:48:19;100672.59;;;7.67;49.93
51239;BME280;38154;47.548;18.828;2022-12-18T08:50:58;100677.34;;;7.77;47.89
51239;BME280;38154;47.548;18.828;2022-12-18T08:53:25;100667.31;;;7.65;47.46
51239;BME280;38154;47.548;18.828;2022-12-18T08:55:51;100672.28;;;7.80;47.12
51239;BME280;38154;47.548;18.828;2022-12-18T08:58:17;100674.16;;;7.83;47.49
51239;BME280;38154;47.548;18.828;2022-12-18T09:00:43;100678.41;;;8.23;45.64
51239;BME280;38154;47.548;18.828;2022-12-18T09:03:17;100684.75;;;8.08;46.52
51239;BME280;38154;47.548;18.828;2022-12-18T09:05:45;100680.50;;;8.52;47.30
51239;BME280;38154;47.548;18.828;2022-12-18T09:08:11;100688.84;;;8.44;47.89
51239;BME280;38154;47.548;18.828;2022-12-18T09:10:44;100684.00;;;8.32;47.17
51239;BME280;38154;47.548;18.828;2022-12-18T09:13:11;100689.69;;;8.23;46.96
51239;BME280;38154;47.548;18.828;2022-12-18T09:15:50;100687.31;;;8.49;46.84
51239;BME280;38154;47.548;18.828;2022-12-18T09:18:17;100685.03;;;8.79;45.88
51239;BME280;38154;47.548;18.828;2022-12-18T09:20:44;100690.12;;;8.76;45.81
51239;BME280;38154;47.548;18.828;2022-12-18T09:23:11;100689.50;;;8.82;45.45
51239;BME280;38154;47.548;18.828;2022-12-18T09:25:37;100699.84;;;8.59;46.61
51239;BME280;38154;47.548;18.828;2022-12-18T09:28:06;100710.72;;;8.49;46.90
51239;BME280;38154;47.548;18.828;2022-12-18T09:30:32;100707.50;;;8.35;48.26
51239;BME280;38154;47.548;18.828;2022-12-18T09:32:59;100696.62;;;8.65;46.98
51239;BME280;38154;47.548;18.828;2022-12-18T09:35:25;100690.25;;;8.79;46.36
51239;BME280;38154;47.548;18.828;2022-12-18T09:37:53;100699.53;;;8.95;46.44
51239;BME280;38154;47.548;18.828;2022-12-18T09:40:22;100696.62;;;8.44;46.10
51239;BME280;38154;47.548;18.828;2022-12-18T09:42:53;100695.84;;;8.67;46.00
51239;BME280;38154;47.548;18.828;2022-12-18T09:45:21;100698.59;;;8.49;46.42
51239;BME280;38154;47.548;18.828;2022-12-18T09:47:48;100697.78;;;8.31;47.03
51239;BME280;38154;47.548;18.828;2022-12-18T09:50:32;100699.25;;;8.03;48.00
51239;BME280;38154;47.548;18.828;2022-12-18T09:53:06;100701.91;;;8.05;47.11
51239;BME280;38154;47.548;18.828;2022-12-18T09:55:39;100698.03;;;7.95;48.40
51239;BME280;38154;47.548;18.828;2022-12-18T09:58:14;100699.97;;;7.21;50.34
51239;BME280;38154;47.548;18.828;2022-12-18T10:00:42;100705.28;;;6.86;50.65
51239;BME280;38154;47.548;18.828;2022-12-18T10:03:14;100698.25;;;6.48;51.03
51239;BME280;38154;47.548;18.828;2022-12-18T10:06:04;100693.81;;;5.44;55.19
51239;BME280;38154;47.548;18.828;2022-12-18T10:08:44;100693.59;;;4.60;57.32
51239;BME280;38154;47.548;18.828;2022-12-18T10:22:10;100707.09;;;2.68;69.80
51239;BME280;38154;47.548;18.828;2022-12-18T10:27:15;100693.25;;;2.01;74.57
51239;BME280;38154;47.548;18.828;2022-12-18T10:29:43;100701.13;;;1.77;77.26
51239;BME280;38154;47.548;18.828;2022-12-18T10:32:15;100698.91;;;1.57;81.86
51239;BME280;38154;47.548;18.828;2022-12-18T10:34:44;100699.78;;;1.57;77.62
51239;BME280;38154;47.548;18.828;2022-12-18T10:37:18;100696.38;;;1.45;74.52
51239;BME280;38154;47.548;18.828;2022-12-18T10:39:45;100693.19;;;1.24;76.72
51239;BME280;38154;47.548;18.828;2022-12-18T10:42:17;100696.19;;;1.05;74.60
51239;BME280;38154;47.548;18.828;2022-12-18T10:44:43;100700.97;;;1.00;74.85
51239;BME280;38154;47.548;18.828;2022-12-18T10:47:15;100699.09;;;0.98;74.97
51239;BME280;38154;47.548;18.828;2022-12-18T10:49:49;100705.13;;;0.98;73.84
51239;BME280;38154;47.548;18.828;2022-12-18T10:52:21;100703.25;;;0.96;79.02
51239;BME280;38154;47.548;18.828;2022-12-18T10:54:49;100702.38;;;0.83;80.15
51239;BME280;38154;47.548;18.828;2022-12-18T10:57:35;100692.97;;;0.84;79.78
51239;BME280;38154;47.548;18.828;2022-12-18T11:00:28;100689.75;;;0.86;81.75
51239;BME280;38154;47.548;18.828;2022-12-18T11:02:55;100684.03;;;0.90;81.17
51239;BME280;38154;47.548;18.828;2022-12-18T11:05:29;100682.81;;;0.85;84.07
51239;BME280;38154;47.548;18.828;2022-12-18T11:07:55;100677.37;;;0.81;82.99
51239;BME280;38154;47.548;18.828;2022-12-18T11:10:26;100671.53;;;0.83;82.40
51239;BME280;38154;47.548;18.828;2022-12-18T11:12:54;100673.12;;;0.81;82.86
51239;BME280;38154;47.548;18.828;2022-12-18T11:15:27;100665.06;;;0.88;83.97
51239;BME280;38154;47.548;18.828;2022-12-18T11:17:55;100669.56;;;0.79;83.41
51239;BME280;38154;47.548;18.828;2022-12-18T11:20:34;100660.63;;;0.86;83.25
51239;BME280;38154;47.548;18.828;2022-12-18T11:23:03;100663.28;;;0.87;83.66
51239;BME280;38154;47.548;18.828;2022-12-18T11:25:30;100658.66;;;0.95;83.87
51239;BME280;38154;47.548;18.828;2022-12-18T11:28:00;100657.34;;;0.88;85.47
51239;BME280;38154;47.548;18.828;2022-12-18T11:30:29;100656.00;;;0.93;87.08
51239;BME280;38154;47.548;18.828;2022-12-18T11:33:14;100657.47;;;0.90;86.48
51239;BME280;38154;47.548;18.828;2022-12-18T11:38:28;100659.34;;;1.04;85.18
51239;BME280;38154;47.548;18.828;2022-12-18T11:40:59;100650.31;;;0.98;85.61
51239;BME280;38154;47.548;18.828;2022-12-18T11:43:32;100648.06;;;0.90;85.10
51239;BME280;38154;47.548;18.828;2022-12-18T11:46:26;100645.22;;;0.86;87.18
51239;BME280;38154;47.548;18.828;2022-12-18T11:49:15;100640.19;;;0.87;87.97
51239;BME280;38154;47.548;18.828;2022-12-18T11:52:00;100637.16;;;0.81;87.61
51239;BME280;38154;47.548;18.828;2022-12-18T11:54:29;100640.87;;;0.73;87.11
51239;BME280;38154;47.548;18.828;2022-12-18T12:11:35;100648.84;;;0.52;86.35
51239;BME280;38154;47.548;18.828;2022-12-18T12:14:15;100641.38;;;0.44;87.84
51239;BME280;38154;47.548;18.828;2022-12-18T12:16:59;100642.38;;;0.34;90.00
51239;BME280;38154;47.548;18.828;2022-12-18T12:20:22;100645.50;;;0.42;89.36
51239;BME280;38154;47.548;18.828;2022-12-18T12:26:08;100645.94;;;0.36;91.47
51239;BME280;38154;47.548;18.828;2022-12-18T12:39:11;100641.72;;;0.13;93.67
51239;BME280;38154;47.548;18.828;2022-12-18T12:41:41;100648.06;;;0.06;95.67
51239;BME280;38154;47.548;18.828;2022-12-18T12:44:39;100644.37;;;0.14;95.40
51239;BME280;38154;47.548;18.828;2022-12-18T12:47:16;100651.63;;;0.08;95.97
51239;BME280;38154;47.548;18.828;2022-12-18T12:49:46;100657.56;;;0.07;96.37
51239;BME280;38154;47.548;18.828;2022-12-18T12:52:52;100665.69;;;0.13;96.17
51239;BME280;38154;47.548;18.828;2022-12-18T12:55:21;100671.50;;;0.11;97.33
51239;BME280;38154;47.548;18.828;2022-12-18T13:00:20;100677.84;;;-0.08;98.84
51239;BME280;38154;47.548;18.828;2022-12-18T13:03:12;100677.59;;;-0.11;100.00
51239;BME280;38154;47.548;18.828;2022-12-18T13:05:55;100681.84;;;-0.11;100.00
51239;BME280;38154;47.548;18.828;2022-12-18T13:08:28;100688.72;;;-0.22;100.00
51239;BME280;38154;47.548;18.828;2022-12-18T13:10:56;100691.63;;;-0.17;100.00
51239;BME280;38154;47.548;18.828;2022-12-18T13:13:49;100688.59;;;-0.24;100.00
51239;BME280;38154;47.548;18.828;2022-12-18T13:16:19;100688.16;;;-0.30;100.00
51239;BME280;38154;47.548;18.828;2022-12-18T13:18:53;100686.34;;;-0.31;100.00
51239;BME280;38154;47.548;18.828;2022-12-18T13:21:24;100694.87;;;-0.20;100.00
51239;BME280;38154;47.548;18.828;2022-12-18T13:23:51;100690.50;;;-0.21;100.00
51239;BME280;38154;47.548;18.828;2022-12-18T13:36:41;100688.97;;;-0.53;100.00
51239;BME280;38154;47.548;18.828;2022-12-18T13:41:42;100683.91;;;-0.63;100.00
51239;BME280;38154;47.548;18.828;2022-12-18T13:44:31;100690.38;;;-0.68;100.00
51239;BME280;38154;47.548;18.828;2022-12-18T13:46:59;100698.81;;;-0.69;100.00
51239;BME280;38154;47.548;18.828;2022-12-18T13:49:40;100701.81;;;-0.75;100.00
51239;BME280;38154;47.548;18.828;2022-12-18T13:52:18;100699.00;;;-0.78;100.00
51239;BME280;38154;47.548;18.828;2022-12-18T13:54:47;100704.31;;;-0.87;100.00
51239;BME280;38154;47.548;18.828;2022-12-18T13:57:27;100700.72;;;-0.89;100.00
51239;BME280;38154;47.548;18.828;2022-12-18T13:59:54;100709.94;;;-0.91;100.00
51239;BME280;38154;47.548;18.828;2022-12-18T14:02:25;100699.25;;;-0.97;100.00
51239;BME280;38154;47.548;18.828;2022-12-18T14:04:52;100696.97;;;-1.04;100.00
51239;BME280;38154;47.548;18.828;2022-12-18T14:07:19;100699.41;;;-1.06;100.00